sensor_id;sensor_type;location;lat;lon;timestamp;P1;durP1;ratioP1;P2;durP2;ratioP2
41685;SDS011;27370;42.764;23.432;2023-03-29T00:01:32;9.68;;;5.20;;
41685;SDS011;27370;42.764;23.432;2023-03-29T00:03:58;13.10;;;5.45;;
41685;SDS011;27370;42.764;23.432;2023-03-29T00:06:24;10.38;;;5.00;;
41685;SDS011;27370;42.764;23.432;2023-03-29T00:08:55;12.90;;;5.47;;
41685;SDS011;27370;42.764;23.432;2023-03-29T00:11:20;11.32;;;5.70;;
41685;SDS011;27370;42.764;23.432;2023-03-29T00:13:47;9.68;;;4.80;;
41685;SDS011;27370;42.764;23.432;2023-03-29T00:16:13;10.77;;;4.90;;
41685;SDS011;27370;42.764;23.432;2023-03-29T00:18:38;11.95;;;5.22;;
41685;SDS011;27370;42.764;23.432;2023-03-29T00:21:04;11.77;;;5.55;;
41685;SDS011;27370;42.764;23.432;2023-03-29T00:23:30;8.93;;;4.78;;
41685;SDS011;27370;42.764;23.432;2023-03-29T00:25:55;10.57;;;5.20;;
41685;SDS011;27370;42.764;23.432;2023-03-29T00:28:21;12.00;;;5.45;;
41685;SDS011;27370;42.764;23.432;2023-03-29T00:30:47;11.82;;;6.20;;
41685;SDS011;27370;42.764;23.432;2023-03-29T00:33:15;10.20;;;5.45;;
41685;SDS011;27370;42.764;23.432;2023-03-29T00:35:43;9.65;;;5.22;;
41685;SDS011;27370;42.764;23.432;2023-03-29T00:38:09;10.63;;;5.18;;
41685;SDS011;27370;42.764;23.432;2023-03-29T00:40:39;9.98;;;5.68;;
41685;SDS011;27370;42.764;23.432;2023-03-29T00:43:12;11.20;;;5.45;;
41685;SDS011;27370;42.764;23.432;2023-03-29T00:45:39;10.35;;;5.88;;
41685;SDS011;27370;42.764;23.432;2023-03-29T00:48:05;10.70;;;5.63;;
41685;SDS011;27370;42.764;23.432;2023-03-29T00:58:51;11.27;;;5.45;;
41685;SDS011;27370;42.764;23.432;2023-03-29T01:01:27;13.68;;;5.60;;
41685;SDS011;27370;42.764;23.432;2023-03-29T01:04:09;10.15;;;4.97;;
41685;SDS011;27370;42.764;23.432;2023-03-29T01:06:44;10.70;;;5.38;;
41685;SDS011;27370;42.764;23.432;2023-03-29T01:09:17;10.85;;;5.68;;
41685;SDS011;27370;42.764;23.432;2023-03-29T01:11:50;12.80;;;6.05;;
41685;SDS011;27370;42.764;23.432;2023-03-29T01:14:21;10.38;;;5.75;;
41685;SDS011;27370;42.764;23.432;2023-03-29T01:16:50;12.55;;;6.43;;
41685;SDS011;27370;42.764;23.432;2023-03-29T01:19:19;13.55;;;6.22;;
41685;SDS011;27370;42.764;23.432;2023-03-29T01:21:50;10.77;;;6.13;;
41685;SDS011;27370;42.764;23.432;2023-03-29T01:24:36;10.75;;;5.57;;
41685;SDS011;27370;42.764;23.432;2023-03-29T01:30:04;11.50;;;5.53;;
41685;SDS011;27370;42.764;23.432;2023-03-29T01:32:43;10.63;;;5.50;;
41685;SDS011;27370;42.764;23.432;2023-03-29T01:35:15;12.10;;;4.93;;
41685;SDS011;27370;42.764;23.432;2023-03-29T01:40:15;10.02;;;5.50;;
41685;SDS011;27370;42.764;23.432;2023-03-29T01:42:58;10.50;;;5.60;;
41685;SDS011;27370;42.764;23.432;2023-03-29T01:48:49;9.95;;;5.07;;
41685;SDS011;27370;42.764;23.432;2023-03-29T01:56:31;12.00;;;5.47;;
41685;SDS011;27370;42.764;23.432;2023-03-29T01:59:01;11.43;;;5.63;;
41685;SDS011;27370;42.764;23.432;2023-03-29T02:01:33;9.93;;;4.20;;
41685;SDS011;27370;42.764;23.432;2023-03-29T02:04:05;9.30;;;5.00;;
41685;SDS011;27370;42.764;23.432;2023-03-29T02:06:37;9.05;;;4.47;;
41685;SDS011;27370;42.764;23.432;2023-03-29T02:09:05;9.10;;;4.68;;
41685;SDS011;27370;42.764;23.432;2023-03-29T02:11:31;12.88;;;5.13;;
41685;SDS011;27370;42.764;23.432;2023-03-29T02:14:00;10.00;;;4.40;;
41685;SDS011;27370;42.764;23.432;2023-03-29T02:16:26;11.80;;;4.47;;
41685;SDS011;27370;42.764;23.432;2023-03-29T02:18:52;9.40;;;4.28;;
41685;SDS011;27370;42.764;23.432;2023-03-29T02:21:29;9.82;;;4.70;;
41685;SDS011;27370;42.764;23.432;2023-03-29T02:24:01;9.38;;;4.43;;
41685;SDS011;27370;42.764;23.432;2023-03-29T02:26:31;9.98;;;5.10;;
41685;SDS011;27370;42.764;23.432;2023-03-29T02:28:57;10.07;;;5.18;;
41685;SDS011;27370;42.764;23.432;2023-03-29T02:31:24;5.25;;;2.90;;
41685;SDS011;27370;42.764;23.432;2023-03-29T02:34:03;8.18;;;4.18;;
41685;SDS011;27370;42.764;23.432;2023-03-29T02:36:37;8.07;;;4.40;;
41685;SDS011;27370;42.764;23.432;2023-03-29T02:39:06;10.40;;;4.22;;
41685;SDS011;27370;42.764;23.432;2023-03-29T02:41:35;5.88;;;2.90;;
41685;SDS011;27370;42.764;23.432;2023-03-29T02:44:03;8.45;;;3.90;;
41685;SDS011;27370;42.764;23.432;2023-03-29T02:46:33;4.90;;;2.83;;
41685;SDS011;27370;42.764;23.432;2023-03-29T02:48:59;8.98;;;4.40;;
41685;SDS011;27370;42.764;23.432;2023-03-29T02:51:29;6.82;;;3.55;;
41685;SDS011;27370;42.764;23.432;2023-03-29T02:54:02;10.98;;;4.28;;
41685;SDS011;27370;42.764;23.432;2023-03-29T02:56:29;7.60;;;4.47;;
41685;SDS011;27370;42.764;23.432;2023-03-29T02:59:05;8.60;;;4.40;;
41685;SDS011;27370;42.764;23.432;2023-03-29T03:01:31;5.85;;;2.97;;
41685;SDS011;27370;42.764;23.432;2023-03-29T03:03:56;8.38;;;4.40;;
41685;SDS011;27370;42.764;23.432;2023-03-29T03:06:22;11.40;;;4.70;;
41685;SDS011;27370;42.764;23.432;2023-03-29T03:08:48;7.53;;;3.55;;
41685;SDS011;27370;42.764;23.432;2023-03-29T03:11:14;10.18;;;4.57;;
41685;SDS011;27370;42.764;23.432;2023-03-29T03:13:39;7.30;;;4.13;;
41685;SDS011;27370;42.764;23.432;2023-03-29T03:16:06;5.22;;;2.38;;
41685;SDS011;27370;42.764;23.432;2023-03-29T03:18:32;4.05;;;2.45;;
41685;SDS011;27370;42.764;23.432;2023-03-29T03:20:59;8.73;;;4.55;;
41685;SDS011;27370;42.764;23.432;2023-03-29T03:23:26;8.82;;;4.40;;
41685;SDS011;27370;42.764;23.432;2023-03-29T03:25:53;9.52;;;4.68;;
41685;SDS011;27370;42.764;23.432;2023-03-29T03:28:19;6.90;;;2.97;;
41685;SDS011;27370;42.764;23.432;2023-03-29T03:30:46;8.48;;;4.13;;
41685;SDS011;27370;42.764;23.432;2023-03-29T03:33:32;8.95;;;4.63;;
41685;SDS011;27370;42.764;23.432;2023-03-29T03:36:32;9.43;;;5.13;;
41685;SDS011;27370;42.764;23.432;2023-03-29T03:39:00;8.80;;;4.55;;
41685;SDS011;27370;42.764;23.432;2023-03-29T03:41:27;9.68;;;4.85;;
41685;SDS011;27370;42.764;23.432;2023-03-29T03:43:52;9.20;;;5.28;;
41685;SDS011;27370;42.764;23.432;2023-03-29T03:46:19;9.20;;;4.60;;
41685;SDS011;27370;42.764;23.432;2023-03-29T03:48:45;12.55;;;4.97;;
41685;SDS011;27370;42.764;23.432;2023-03-29T03:51:26;9.68;;;5.05;;
41685;SDS011;27370;42.764;23.432;2023-03-29T03:53:51;9.60;;;4.80;;
41685;SDS011;27370;42.764;23.432;2023-03-29T03:56:32;9.52;;;5.07;;
41685;SDS011;27370;42.764;23.432;2023-03-29T03:59:03;9.30;;;5.03;;
41685;SDS011;27370;42.764;23.432;2023-03-29T04:01:36;10.20;;;4.63;;
41685;SDS011;27370;42.764;23.432;2023-03-29T04:04:19;9.98;;;4.80;;
41685;SDS011;27370;42.764;23.432;2023-03-29T04:06:59;12.20;;;5.15;;
41685;SDS011;27370;42.764;23.432;2023-03-29T04:09:46;10.00;;;4.85;;
41685;SDS011;27370;42.764;23.432;2023-03-29T04:12:29;11.95;;;5.00;;
41685;SDS011;27370;42.764;23.432;2023-03-29T04:14:55;11.70;;;4.95;;
41685;SDS011;27370;42.764;23.432;2023-03-29T04:17:23;9.73;;;4.72;;
41685;SDS011;27370;42.764;23.432;2023-03-29T04:19:53;10.52;;;4.85;;
41685;SDS011;27370;42.764;23.432;2023-03-29T04:22:18;10.27;;;4.97;;
41685;SDS011;27370;42.764;23.432;2023-03-29T04:24:44;9.98;;;5.07;;
41685;SDS011;27370;42.764;23.432;2023-03-29T04:27:42;10.52;;;4.88;;
41685;SDS011;27370;42.764;23.432;2023-03-29T04:30:19;11.65;;;4.90;;
41685;SDS011;27370;42.764;23.432;2023-03-29T04:33:10;9.75;;;4.65;;
41685;SDS011;27370;42.764;23.432;2023-03-29T04:35:38;9.07;;;4.57;;
41685;SDS011;27370;42.764;23.432;2023-03-29T04:38:05;11.38;;;4.80;;
41685;SDS011;27370;42.764;23.432;2023-03-29T04:40:35;8.23;;;4.22;;
41685;SDS011;27370;42.764;23.432;2023-03-29T04:43:08;9.20;;;4.50;;
41685;SDS011;27370;42.764;23.432;2023-03-29T04:45:38;10.80;;;4.53;;
41685;SDS011;27370;42.764;23.432;2023-03-29T04:48:11;6.55;;;3.72;;
41685;SDS011;27370;42.764;23.432;2023-03-29T04:50:44;8.73;;;3.35;;
41685;SDS011;27370;42.764;23.432;2023-03-29T04:53:10;7.25;;;3.45;;
41685;SDS011;27370;42.764;23.432;2023-03-29T04:55:36;9.38;;;4.07;;
41685;SDS011;27370;42.764;23.432;2023-03-29T04:58:02;8.20;;;3.80;;
41685;SDS011;27370;42.764;23.432;2023-03-29T05:00:37;7.35;;;3.72;;
41685;SDS011;27370;42.764;23.432;2023-03-29T05:03:29;8.88;;;4.35;;
41685;SDS011;27370;42.764;23.432;2023-03-29T05:06:03;23.75;;;12.00;;
41685;SDS011;27370;42.764;23.432;2023-03-29T05:08:34;8.55;;;4.43;;
41685;SDS011;27370;42.764;23.432;2023-03-29T05:11:24;8.55;;;4.28;;
41685;SDS011;27370;42.764;23.432;2023-03-29T05:13:51;13.23;;;4.88;;
41685;SDS011;27370;42.764;23.432;2023-03-29T05:16:16;8.57;;;3.97;;
41685;SDS011;27370;42.764;23.432;2023-03-29T05:18:43;6.28;;;3.22;;
41685;SDS011;27370;42.764;23.432;2023-03-29T05:21:09;8.95;;;3.83;;
41685;SDS011;27370;42.764;23.432;2023-03-29T05:23:35;7.72;;;3.22;;
41685;SDS011;27370;42.764;23.432;2023-03-29T05:26:36;7.07;;;3.60;;
41685;SDS011;27370;42.764;23.432;2023-03-29T05:29:02;6.60;;;3.42;;
41685;SDS011;27370;42.764;23.432;2023-03-29T05:31:29;8.27;;;3.30;;
41685;SDS011;27370;42.764;23.432;2023-03-29T05:33:55;8.75;;;3.40;;
41685;SDS011;27370;42.764;23.432;2023-03-29T05:36:20;6.97;;;3.40;;
41685;SDS011;27370;42.764;23.432;2023-03-29T05:38:48;5.65;;;2.88;;
41685;SDS011;27370;42.764;23.432;2023-03-29T05:41:14;5.80;;;2.83;;
41685;SDS011;27370;42.764;23.432;2023-03-29T05:43:44;6.72;;;3.20;;
41685;SDS011;27370;42.764;23.432;2023-03-29T05:46:10;5.22;;;2.70;;
41685;SDS011;27370;42.764;23.432;2023-03-29T05:48:45;6.72;;;3.00;;
41685;SDS011;27370;42.764;23.432;2023-03-29T05:51:11;5.78;;;2.88;;
41685;SDS011;27370;42.764;23.432;2023-03-29T05:53:37;7.05;;;3.00;;
41685;SDS011;27370;42.764;23.432;2023-03-29T05:56:02;5.75;;;2.80;;
41685;SDS011;27370;42.764;23.432;2023-03-29T05:58:29;5.18;;;2.70;;
41685;SDS011;27370;42.764;23.432;2023-03-29T06:00:55;6.47;;;2.97;;
41685;SDS011;27370;42.764;23.432;2023-03-29T06:03:40;5.15;;;2.70;;
41685;SDS011;27370;42.764;23.432;2023-03-29T06:06:06;6.13;;;2.97;;
41685;SDS011;27370;42.764;23.432;2023-03-29T06:08:33;5.93;;;2.72;;
41685;SDS011;27370;42.764;23.432;2023-03-29T06:11:05;5.18;;;2.50;;
41685;SDS011;27370;42.764;23.432;2023-03-29T06:13:52;4.22;;;2.42;;
41685;SDS011;27370;42.764;23.432;2023-03-29T06:16:18;6.60;;;2.97;;
41685;SDS011;27370;42.764;23.432;2023-03-29T06:18:43;6.28;;;3.05;;
41685;SDS011;27370;42.764;23.432;2023-03-29T06:21:09;5.65;;;2.90;;
41685;SDS011;27370;42.764;23.432;2023-03-29T06:23:35;6.32;;;2.88;;
41685;SDS011;27370;42.764;23.432;2023-03-29T06:26:01;5.65;;;3.00;;
41685;SDS011;27370;42.764;23.432;2023-03-29T06:28:27;5.70;;;2.65;;
41685;SDS011;27370;42.764;23.432;2023-03-29T06:30:53;6.97;;;2.90;;
41685;SDS011;27370;42.764;23.432;2023-03-29T07:44:23;4.78;;;2.03;;
41685;SDS011;27370;42.764;23.432;2023-03-29T07:46:49;3.65;;;1.98;;
41685;SDS011;27370;42.764;23.432;2023-03-29T07:49:15;5.10;;;1.90;;
41685;SDS011;27370;42.764;23.432;2023-03-29T07:51:40;3.58;;;2.00;;
41685;SDS011;27370;42.764;23.432;2023-03-29T07:54:09;6.13;;;2.47;;
41685;SDS011;27370;42.764;23.432;2023-03-29T07:56:34;4.25;;;2.08;;
41685;SDS011;27370;42.764;23.432;2023-03-29T07:59:14;4.38;;;1.92;;
41685;SDS011;27370;42.764;23.432;2023-03-29T08:01:42;4.97;;;1.90;;
41685;SDS011;27370;42.764;23.432;2023-03-29T08:04:20;1.70;;;1.33;;
41685;SDS011;27370;42.764;23.432;2023-03-29T08:07:05;2.88;;;1.60;;
41685;SDS011;27370;42.764;23.432;2023-03-29T08:09:53;2.88;;;1.70;;
41685;SDS011;27370;42.764;23.432;2023-03-29T08:12:25;5.60;;;1.90;;
41685;SDS011;27370;42.764;23.432;2023-03-29T08:14:54;4.40;;;1.95;;
41685;SDS011;27370;42.764;23.432;2023-03-29T08:17:25;5.18;;;1.90;;
41685;SDS011;27370;42.764;23.432;2023-03-29T08:19:50;2.53;;;1.60;;
41685;SDS011;27370;42.764;23.432;2023-03-29T08:22:19;3.85;;;1.80;;
41685;SDS011;27370;42.764;23.432;2023-03-29T08:25:20;3.88;;;1.73;;
41685;SDS011;27370;42.764;23.432;2023-03-29T08:27:50;3.33;;;1.60;;
41685;SDS011;27370;42.764;23.432;2023-03-29T08:30:26;3.95;;;1.80;;
41685;SDS011;27370;42.764;23.432;2023-03-29T08:32:52;4.07;;;1.77;;
41685;SDS011;27370;42.764;23.432;2023-03-29T08:35:18;3.20;;;1.60;;
41685;SDS011;27370;42.764;23.432;2023-03-29T08:37:58;3.15;;;1.70;;
41685;SDS011;27370;42.764;23.432;2023-03-29T08:40:27;3.08;;;1.65;;
41685;SDS011;27370;42.764;23.432;2023-03-29T08:48:27;2.60;;;1.58;;
41685;SDS011;27370;42.764;23.432;2023-03-29T08:50:59;3.67;;;1.50;;
41685;SDS011;27370;42.764;23.432;2023-03-29T08:53:34;3.28;;;1.70;;
41685;SDS011;27370;42.764;23.432;2023-03-29T08:56:21;3.88;;;1.60;;
41685;SDS011;27370;42.764;23.432;2023-03-29T08:59:19;3.03;;;1.60;;
41685;SDS011;27370;42.764;23.432;2023-03-29T09:01:50;4.13;;;1.55;;
41685;SDS011;27370;42.764;23.432;2023-03-29T09:04:21;2.80;;;1.45;;
41685;SDS011;27370;42.764;23.432;2023-03-29T09:06:59;3.85;;;1.55;;
41685;SDS011;27370;42.764;23.432;2023-03-29T09:09:36;4.43;;;1.52;;
41685;SDS011;27370;42.764;23.432;2023-03-29T09:18:16;4.40;;;1.60;;
41685;SDS011;27370;42.764;23.432;2023-03-29T09:20:59;4.85;;;1.60;;
41685;SDS011;27370;42.764;23.432;2023-03-29T09:26:37;3.30;;;1.48;;
41685;SDS011;27370;42.764;23.432;2023-03-29T09:31:55;4.40;;;1.70;;
41685;SDS011;27370;42.764;23.432;2023-03-29T09:34:22;3.70;;;1.48;;
41685;SDS011;27370;42.764;23.432;2023-03-29T09:37:52;4.45;;;1.52;;
41685;SDS011;27370;42.764;23.432;2023-03-29T09:40:16;2.40;;;1.40;;
41685;SDS011;27370;42.764;23.432;2023-03-29T09:43:10;3.55;;;1.70;;
41685;SDS011;27370;42.764;23.432;2023-03-29T09:45:38;3.88;;;1.70;;
41685;SDS011;27370;42.764;23.432;2023-03-29T09:48:09;3.28;;;1.30;;
41685;SDS011;27370;42.764;23.432;2023-03-29T09:50:42;5.13;;;1.40;;
41685;SDS011;27370;42.764;23.432;2023-03-29T09:53:12;4.63;;;1.67;;
41685;SDS011;27370;42.764;23.432;2023-03-29T09:55:42;3.05;;;1.55;;
41685;SDS011;27370;42.764;23.432;2023-03-29T09:58:25;3.15;;;1.30;;
41685;SDS011;27370;42.764;23.432;2023-03-29T10:01:02;3.40;;;1.80;;
41685;SDS011;27370;42.764;23.432;2023-03-29T10:03:35;3.40;;;1.80;;
41685;SDS011;27370;42.764;23.432;2023-03-29T10:06:13;9.27;;;3.03;;
41685;SDS011;27370;42.764;23.432;2023-03-29T10:08:54;4.00;;;1.77;;
41685;SDS011;27370;42.764;23.432;2023-03-29T10:11:30;3.30;;;1.70;;
41685;SDS011;27370;42.764;23.432;2023-03-29T10:13:59;2.97;;;1.58;;
41685;SDS011;27370;42.764;23.432;2023-03-29T10:16:37;4.43;;;1.50;;
41685;SDS011;27370;42.764;23.432;2023-03-29T10:19:15;5.55;;;1.65;;
41685;SDS011;27370;42.764;23.432;2023-03-29T10:21:51;4.25;;;1.50;;
41685;SDS011;27370;42.764;23.432;2023-03-29T10:24:19;3.30;;;1.17;;
41685;SDS011;27370;42.764;23.432;2023-03-29T10:26:46;2.58;;;1.50;;
41685;SDS011;27370;42.764;23.432;2023-03-29T10:29:19;2.17;;;1.40;;
41685;SDS011;27370;42.764;23.432;2023-03-29T10:31:47;42.25;;;22.45;;
41685;SDS011;27370;42.764;23.432;2023-03-29T10:34:14;6.93;;;3.28;;
41685;SDS011;27370;42.764;23.432;2023-03-29T10:36:43;5.07;;;1.77;;
41685;SDS011;27370;42.764;23.432;2023-03-29T10:39:17;3.65;;;1.38;;
41685;SDS011;27370;42.764;23.432;2023-03-29T10:41:44;3.35;;;1.10;;
41685;SDS011;27370;42.764;23.432;2023-03-29T10:44:27;3.30;;;1.17;;
41685;SDS011;27370;42.764;23.432;2023-03-29T10:46:55;4.32;;;1.58;;
41685;SDS011;27370;42.764;23.432;2023-03-29T10:49:45;3.67;;;1.40;;
41685;SDS011;27370;42.764;23.432;2023-03-29T10:52:16;5.22;;;1.65;;
41685;SDS011;27370;42.764;23.432;2023-03-29T10:54:42;2.58;;;1.25;;
41685;SDS011;27370;42.764;23.432;2023-03-29T10:57:11;4.30;;;1.80;;
41685;SDS011;27370;42.764;23.432;2023-03-29T10:59:56;4.00;;;1.65;;
41685;SDS011;27370;42.764;23.432;2023-03-29T11:03:09;7.07;;;1.42;;
41685;SDS011;27370;42.764;23.432;2023-03-29T11:08:37;2.63;;;1.40;;
41685;SDS011;27370;42.764;23.432;2023-03-29T11:13:56;1.67;;;1.02;;
41685;SDS011;27370;42.764;23.432;2023-03-29T11:27:34;4.65;;;1.77;;
41685;SDS011;27370;42.764;23.432;2023-03-29T11:30:16;3.45;;;1.27;;
41685;SDS011;27370;42.764;23.432;2023-03-29T11:33:13;4.75;;;1.60;;
41685;SDS011;27370;42.764;23.432;2023-03-29T11:38:59;2.90;;;1.40;;
41685;SDS011;27370;42.764;23.432;2023-03-29T11:41:37;2.47;;;1.15;;
41685;SDS011;27370;42.764;23.432;2023-03-29T11:47:13;2.00;;;1.15;;
41685;SDS011;27370;42.764;23.432;2023-03-29T11:49:49;2.50;;;1.30;;
41685;SDS011;27370;42.764;23.432;2023-03-29T11:52:57;2.85;;;1.20;;
41685;SDS011;27370;42.764;23.432;2023-03-29T11:55:28;2.25;;;1.13;;
41685;SDS011;27370;42.764;23.432;2023-03-29T11:57:58;4.40;;;1.50;;
41685;SDS011;27370;42.764;23.432;2023-03-29T12:03:45;2.95;;;1.20;;
41685;SDS011;27370;42.764;23.432;2023-03-29T12:09:08;2.17;;;1.40;;
41685;SDS011;27370;42.764;23.432;2023-03-29T12:11:42;2.60;;;1.30;;
41685;SDS011;27370;42.764;23.432;2023-03-29T12:14:15;5.10;;;1.48;;
41685;SDS011;27370;42.764;23.432;2023-03-29T12:16:47;7.85;;;1.75;;
41685;SDS011;27370;42.764;23.432;2023-03-29T12:19:20;2.45;;;1.10;;
41685;SDS011;27370;42.764;23.432;2023-03-29T12:21:53;2.78;;;1.70;;
41685;SDS011;27370;42.764;23.432;2023-03-29T12:24:22;3.45;;;1.30;;
41685;SDS011;27370;42.764;23.432;2023-03-29T12:27:01;3.25;;;1.50;;
41685;SDS011;27370;42.764;23.432;2023-03-29T12:35:53;5.90;;;1.30;;
41685;SDS011;27370;42.764;23.432;2023-03-29T12:39:00;3.95;;;1.63;;
41685;SDS011;27370;42.764;23.432;2023-03-29T12:41:45;3.50;;;1.40;;
41685;SDS011;27370;42.764;23.432;2023-03-29T12:47:22;2.45;;;1.33;;
41685;SDS011;27370;42.764;23.432;2023-03-29T12:49:54;3.25;;;1.48;;
41685;SDS011;27370;42.764;23.432;2023-03-29T12:52:23;4.25;;;1.40;;
41685;SDS011;27370;42.764;23.432;2023-03-29T12:55:01;6.05;;;1.40;;
41685;SDS011;27370;42.764;23.432;2023-03-29T13:00:41;2.65;;;1.35;;
41685;SDS011;27370;42.764;23.432;2023-03-29T13:03:27;4.38;;;1.60;;
41685;SDS011;27370;42.764;23.432;2023-03-29T13:06:02;3.40;;;1.52;;
41685;SDS011;27370;42.764;23.432;2023-03-29T13:08:34;4.20;;;1.70;;
41685;SDS011;27370;42.764;23.432;2023-03-29T13:11:00;4.75;;;1.30;;
41685;SDS011;27370;42.764;23.432;2023-03-29T13:13:28;4.05;;;1.50;;
41685;SDS011;27370;42.764;23.432;2023-03-29T13:16:11;4.38;;;1.40;;
41685;SDS011;27370;42.764;23.432;2023-03-29T13:24:18;4.88;;;1.70;;
41685;SDS011;27370;42.764;23.432;2023-03-29T13:38:04;2.33;;;1.52;;
41685;SDS011;27370;42.764;23.432;2023-03-29T13:48:27;19.42;;;11.27;;
41685;SDS011;27370;42.764;23.432;2023-03-29T13:53:33;3.08;;;1.48;;
41685;SDS011;27370;42.764;23.432;2023-03-29T13:56:05;3.05;;;1.42;;
41685;SDS011;27370;42.764;23.432;2023-03-29T13:58:43;1.48;;;1.08;;
41685;SDS011;27370;42.764;23.432;2023-03-29T14:01:13;2.83;;;1.40;;
41685;SDS011;27370;42.764;23.432;2023-03-29T14:03:47;6.22;;;2.58;;
41685;SDS011;27370;42.764;23.432;2023-03-29T14:06:20;2.08;;;1.05;;
41685;SDS011;27370;42.764;23.432;2023-03-29T14:08:49;3.47;;;1.60;;
41685;SDS011;27370;42.764;23.432;2023-03-29T14:13:45;2.70;;;1.35;;
41685;SDS011;27370;42.764;23.432;2023-03-29T14:16:11;3.40;;;1.38;;
41685;SDS011;27370;42.764;23.432;2023-03-29T14:18:41;3.85;;;1.70;;
41685;SDS011;27370;42.764;23.432;2023-03-29T14:21:10;1.92;;;1.20;;
41685;SDS011;27370;42.764;23.432;2023-03-29T14:23:38;8.52;;;3.63;;
41685;SDS011;27370;42.764;23.432;2023-03-29T14:26:14;15.07;;;6.53;;
41685;SDS011;27370;42.764;23.432;2023-03-29T14:28:50;12.65;;;5.55;;
41685;SDS011;27370;42.764;23.432;2023-03-29T14:33:57;8.40;;;4.10;;
41685;SDS011;27370;42.764;23.432;2023-03-29T14:36:25;8.70;;;3.47;;
41685;SDS011;27370;42.764;23.432;2023-03-29T14:39:34;9.70;;;4.32;;
41685;SDS011;27370;42.764;23.432;2023-03-29T14:42:03;9.65;;;4.03;;
41685;SDS011;27370;42.764;23.432;2023-03-29T14:44:40;2.78;;;1.60;;
41685;SDS011;27370;42.764;23.432;2023-03-29T14:47:07;3.35;;;1.30;;
41685;SDS011;27370;42.764;23.432;2023-03-29T14:49:39;3.15;;;1.30;;
41685;SDS011;27370;42.764;23.432;2023-03-29T14:52:04;11.20;;;5.28;;
41685;SDS011;27370;42.764;23.432;2023-03-29T14:54:31;22.45;;;12.68;;
41685;SDS011;27370;42.764;23.432;2023-03-29T14:56:58;12.77;;;5.30;;
41685;SDS011;27370;42.764;23.432;2023-03-29T14:59:28;13.45;;;6.57;;
41685;SDS011;27370;42.764;23.432;2023-03-29T15:02:01;17.55;;;9.60;;
41685;SDS011;27370;42.764;23.432;2023-03-29T15:04:35;16.45;;;8.05;;
41685;SDS011;27370;42.764;23.432;2023-03-29T15:07:04;19.35;;;9.57;;
41685;SDS011;27370;42.764;23.432;2023-03-29T15:09:33;10.30;;;5.05;;
41685;SDS011;27370;42.764;23.432;2023-03-29T15:11:59;15.30;;;8.15;;
41685;SDS011;27370;42.764;23.432;2023-03-29T15:14:28;28.00;;;14.68;;
41685;SDS011;27370;42.764;23.432;2023-03-29T15:17:03;21.17;;;12.85;;
41685;SDS011;27370;42.764;23.432;2023-03-29T15:19:51;11.38;;;5.38;;
41685;SDS011;27370;42.764;23.432;2023-03-29T15:22:23;9.32;;;4.00;;
41685;SDS011;27370;42.764;23.432;2023-03-29T15:24:55;11.25;;;6.07;;
41685;SDS011;27370;42.764;23.432;2023-03-29T15:27:22;11.20;;;4.72;;
41685;SDS011;27370;42.764;23.432;2023-03-29T15:29:48;19.92;;;7.70;;
41685;SDS011;27370;42.764;23.432;2023-03-29T15:32:20;12.98;;;6.78;;
41685;SDS011;27370;42.764;23.432;2023-03-29T15:34:56;14.07;;;7.32;;
41685;SDS011;27370;42.764;23.432;2023-03-29T15:37:23;12.20;;;4.78;;
41685;SDS011;27370;42.764;23.432;2023-03-29T15:39:49;12.52;;;4.15;;
41685;SDS011;27370;42.764;23.432;2023-03-29T15:42:15;10.50;;;3.92;;
41685;SDS011;27370;42.764;23.432;2023-03-29T15:44:41;12.02;;;4.82;;
41685;SDS011;27370;42.764;23.432;2023-03-29T15:47:10;16.30;;;7.95;;
41685;SDS011;27370;42.764;23.432;2023-03-29T15:49:36;6.00;;;2.38;;
41685;SDS011;27370;42.764;23.432;2023-03-29T15:52:02;5.53;;;1.98;;
41685;SDS011;27370;42.764;23.432;2023-03-29T15:54:28;7.65;;;2.28;;
41685;SDS011;27370;42.764;23.432;2023-03-29T15:56:59;7.47;;;2.47;;
41685;SDS011;27370;42.764;23.432;2023-03-29T15:59:27;8.38;;;3.00;;
41685;SDS011;27370;42.764;23.432;2023-03-29T16:01:55;12.57;;;4.85;;
41685;SDS011;27370;42.764;23.432;2023-03-29T16:04:22;10.55;;;3.42;;
41685;SDS011;27370;42.764;23.432;2023-03-29T16:06:49;9.45;;;3.30;;
41685;SDS011;27370;42.764;23.432;2023-03-29T16:09:17;10.43;;;3.90;;
41685;SDS011;27370;42.764;23.432;2023-03-29T16:11:44;8.73;;;2.75;;
41685;SDS011;27370;42.764;23.432;2023-03-29T16:14:27;8.50;;;3.28;;
41685;SDS011;27370;42.764;23.432;2023-03-29T16:16:55;11.13;;;3.53;;
41685;SDS011;27370;42.764;23.432;2023-03-29T16:19:22;11.55;;;3.97;;
41685;SDS011;27370;42.764;23.432;2023-03-29T16:21:49;11.10;;;4.45;;
41685;SDS011;27370;42.764;23.432;2023-03-29T16:24:16;11.35;;;4.15;;
41685;SDS011;27370;42.764;23.432;2023-03-29T16:26:47;11.43;;;3.55;;
41685;SDS011;27370;42.764;23.432;2023-03-29T16:29:13;10.07;;;3.22;;
41685;SDS011;27370;42.764;23.432;2023-03-29T16:31:41;12.23;;;4.10;;
41685;SDS011;27370;42.764;23.432;2023-03-29T16:34:08;11.68;;;4.28;;
41685;SDS011;27370;42.764;23.432;2023-03-29T16:36:34;8.95;;;3.25;;
41685;SDS011;27370;42.764;23.432;2023-03-29T16:39:00;7.75;;;3.15;;
41685;SDS011;27370;42.764;23.432;2023-03-29T16:41:25;8.93;;;3.42;;
41685;SDS011;27370;42.764;23.432;2023-03-29T16:43:51;8.88;;;3.25;;
41685;SDS011;27370;42.764;23.432;2023-03-29T16:46:17;10.43;;;3.60;;
41685;SDS011;27370;42.764;23.432;2023-03-29T16:48:42;10.52;;;3.83;;
41685;SDS011;27370;42.764;23.432;2023-03-29T16:51:08;10.63;;;4.15;;
41685;SDS011;27370;42.764;23.432;2023-03-29T16:53:34;10.73;;;4.20;;
41685;SDS011;27370;42.764;23.432;2023-03-29T16:56:01;9.82;;;3.72;;
41685;SDS011;27370;42.764;23.432;2023-03-29T16:58:28;10.02;;;3.58;;
41685;SDS011;27370;42.764;23.432;2023-03-29T17:00:53;9.48;;;3.08;;
41685;SDS011;27370;42.764;23.432;2023-03-29T17:03:21;8.40;;;3.30;;
41685;SDS011;27370;42.764;23.432;2023-03-29T17:05:51;6.25;;;2.80;;
41685;SDS011;27370;42.764;23.432;2023-03-29T17:08:18;8.13;;;3.20;;
41685;SDS011;27370;42.764;23.432;2023-03-29T17:10:44;9.43;;;3.25;;
41685;SDS011;27370;42.764;23.432;2023-03-29T17:13:11;10.32;;;3.75;;
41685;SDS011;27370;42.764;23.432;2023-03-29T17:15:37;10.45;;;3.35;;
41685;SDS011;27370;42.764;23.432;2023-03-29T17:18:02;7.65;;;3.15;;
41685;SDS011;27370;42.764;23.432;2023-03-29T17:20:28;10.18;;;3.90;;
41685;SDS011;27370;42.764;23.432;2023-03-29T17:22:54;11.30;;;3.97;;
41685;SDS011;27370;42.764;23.432;2023-03-29T17:25:20;10.13;;;3.90;;
41685;SDS011;27370;42.764;23.432;2023-03-29T17:27:46;10.00;;;3.70;;
41685;SDS011;27370;42.764;23.432;2023-03-29T17:30:13;9.98;;;3.60;;
41685;SDS011;27370;42.764;23.432;2023-03-29T17:32:40;10.20;;;3.60;;
41685;SDS011;27370;42.764;23.432;2023-03-29T17:35:08;14.68;;;5.68;;
41685;SDS011;27370;42.764;23.432;2023-03-29T17:37:34;16.33;;;6.00;;
41685;SDS011;27370;42.764;23.432;2023-03-29T17:40:01;17.42;;;7.10;;
41685;SDS011;27370;42.764;23.432;2023-03-29T17:42:34;18.27;;;7.53;;
41685;SDS011;27370;42.764;23.432;2023-03-29T17:45:00;19.77;;;8.25;;
41685;SDS011;27370;42.764;23.432;2023-03-29T17:47:26;19.48;;;8.30;;
41685;SDS011;27370;42.764;23.432;2023-03-29T17:49:51;22.45;;;9.50;;
41685;SDS011;27370;42.764;23.432;2023-03-29T17:52:17;32.67;;;12.75;;
41685;SDS011;27370;42.764;23.432;2023-03-29T17:54:43;27.02;;;11.60;;
41685;SDS011;27370;42.764;23.432;2023-03-29T17:57:08;29.77;;;11.77;;
41685;SDS011;27370;42.764;23.432;2023-03-29T17:59:34;17.77;;;7.05;;
41685;SDS011;27370;42.764;23.432;2023-03-29T18:02:02;12.95;;;5.28;;